createdAt,value
2018-03-07T00:00:01.400Z,5.96
2018-03-07T00:00:05.635Z,5.88
2018-03-07T00:00:09.536Z,5.9
2018-03-07T00:00:13.857Z,5.88
2018-03-07T00:00:17.868Z,5.9
2018-03-07T00:00:21.771Z,5.93
2018-03-07T00:00:25.771Z,5.92
2018-03-07T00:00:29.775Z,5.95
2018-03-07T00:00:33.783Z,5.95
2018-03-07T00:00:37.792Z,5.9
2018-03-07T00:00:41.693Z,5.87
2018-03-07T00:00:45.811Z,5.96
2018-03-07T00:00:50.144Z,5.9
2018-03-07T00:00:54.262Z,5.96
2018-03-07T00:00:58.385Z,5.9
2018-03-07T00:01:02.611Z,5.92
2018-03-07T00:01:06.732Z,5.95
2018-03-07T00:01:10.952Z,5.87
2018-03-07T00:01:15.279Z,5.95
2018-03-07T00:01:19.388Z,5.95
2018-03-07T00:01:23.504Z,5.87
2018-03-07T00:01:27.740Z,5.88
2018-03-07T00:01:31.553Z,5.92
2018-03-07T00:01:35.778Z,5.85
2018-03-07T00:01:39.908Z,5.85
2018-03-07T00:01:43.917Z,5.87
2018-03-07T00:01:48.134Z,5.84
2018-03-07T00:01:52.359Z,5.84
2018-03-07T00:01:56.477Z,5.83
2018-03-07T00:02:00.482Z,5.83
2018-03-07T00:02:04.597Z,5.95
2018-03-07T00:02:08.383Z,5.87
2018-03-07T00:02:12.713Z,5.84
2018-03-07T00:02:16.939Z,5.96
2018-03-07T00:02:20.943Z,5.88
2018-03-07T00:02:25.159Z,5.81
2018-03-07T00:02:29.166Z,5.98
2018-03-07T00:02:33.402Z,5.87
2018-03-07T00:02:37.732Z,5.84
2018-03-07T00:02:41.738Z,5.85
2018-03-07T00:02:45.862Z,5.87
2018-03-07T00:02:49.866Z,5.83
2018-03-07T00:02:53.988Z,5.87
2018-03-07T00:02:58.107Z,5.85
2018-03-07T00:03:02.008Z,5.92
2018-03-07T00:03:06.341Z,5.9
2018-03-07T00:03:10.464Z,5.78
2018-03-07T00:03:14.579Z,5.99
2018-03-07T00:03:18.697Z,5.83
2018-03-07T00:03:22.489Z,5.8
2018-03-07T00:03:26.599Z,5.9
2018-03-07T00:03:30.827Z,5.9
2018-03-07T00:03:35.050Z,5.8
2018-03-07T00:03:39.272Z,5.8
2018-03-07T00:03:43.176Z,5.95
2018-03-07T00:03:47.300Z,5.88
2018-03-07T00:03:51.529Z,5.88
2018-03-07T00:03:55.539Z,5.98
2018-03-07T00:03:59.541Z,5.93
2018-03-07T00:04:03.443Z,5.9
2018-03-07T00:04:07.343Z,5.83
2018-03-07T00:04:11.243Z,5.92
2018-03-07T00:04:15.463Z,5.81
2018-03-07T00:04:19.582Z,5.87
2018-03-07T00:04:23.907Z,5.88
2018-03-07T00:04:27.711Z,5.9
2018-03-07T00:04:32.122Z,5.84
2018-03-07T00:04:36.212Z,5.88
2018-03-07T00:04:40.218Z,5.9
2018-03-07T00:04:44.437Z,5.87
2018-03-07T00:04:48.445Z,5.84
2018-03-07T00:04:52.679Z,5.9
2018-03-07T00:04:56.794Z,5.84
2018-03-07T00:05:00.918Z,5.9
2018-03-07T00:05:05.179Z,5.84
2018-03-07T00:05:09.544Z,5.95
2018-03-07T00:05:13.889Z,5.85
2018-03-07T00:05:17.895Z,5.9
2018-03-07T00:05:22.108Z,5.93
2018-03-07T00:05:26.225Z,5.9
2018-03-07T00:05:30.349Z,5.9
2018-03-07T00:05:34.481Z,5.93
2018-03-07T00:05:38.389Z,5.84
2018-03-07T00:05:42.512Z,5.8
2018-03-07T00:05:46.522Z,5.88
2018-03-07T00:05:50.529Z,5.9
2018-03-07T00:05:54.540Z,5.9
2018-03-07T00:05:58.643Z,5.83
2018-03-07T00:06:02.757Z,5.9
2018-03-07T00:06:06.770Z,5.9
2018-03-07T00:06:10.886Z,5.83
2018-03-07T00:06:15.120Z,5.88
2018-03-07T00:06:19.234Z,5.92
2018-03-07T00:06:23.347Z,5.93
2018-03-07T00:06:27.572Z,5.88
2018-03-07T00:06:31.580Z,5.84
2018-03-07T00:06:35.689Z,5.87
2018-03-07T00:06:39.816Z,5.88
2018-03-07T00:06:43.714Z,5.78
2018-03-07T00:06:47.828Z,5.83
2018-03-07T00:06:52.061Z,5.9
2018-03-07T00:06:56.380Z,5.92
2018-03-07T00:07:00.498Z,5.9
2018-03-07T00:07:04.504Z,5.85
2018-03-07T00:07:08.830Z,5.87
2018-03-07T00:07:13.049Z,5.83
2018-03-07T00:07:17.160Z,5.88
2018-03-07T00:07:21.383Z,5.83
2018-03-07T00:07:25.396Z,5.78
2018-03-07T00:07:29.511Z,5.78
2018-03-07T00:07:33.523Z,5.78
2018-03-07T00:07:37.751Z,5.84
2018-03-07T03:00:17.589Z,5.33
2018-03-07T03:00:21.724Z,5.29
2018-03-07T03:00:25.769Z,5.32
2018-03-07T03:00:29.792Z,5.37
2018-03-07T03:00:34.013Z,5.35
2018-03-07T03:00:38.135Z,5.37
2018-03-07T03:00:42.366Z,5.32
2018-03-07T03:00:46.596Z,5.35
2018-03-07T03:00:50.506Z,5.35
2018-03-07T03:00:54.729Z,5.33
2018-03-07T03:00:58.873Z,5.29
2018-03-07T03:01:03.309Z,5.35
2018-03-07T03:01:07.225Z,5.33
2018-03-07T03:01:11.131Z,5.33
2018-03-07T03:01:15.473Z,5.33
2018-03-07T03:01:19.717Z,5.35
2018-03-07T03:01:23.622Z,5.32
2018-03-07T03:01:27.866Z,5.35
2018-03-07T03:01:31.886Z,5.35
2018-03-07T03:01:36.131Z,5.35
2018-03-07T03:01:40.471Z,5.32
2018-03-07T03:01:44.379Z,5.35
2018-03-07T03:01:48.564Z,5.38
2018-03-07T03:01:52.677Z,5.29
2018-03-07T03:01:57.033Z,5.37
2018-03-07T03:02:01.176Z,5.32
2018-03-07T03:02:05.284Z,5.32
2018-03-07T03:02:09.525Z,5.35
2018-03-07T03:02:13.650Z,5.37
2018-03-07T03:02:17.898Z,5.37
2018-03-07T03:02:22.239Z,5.38
2018-03-07T03:02:26.592Z,5.33
2018-03-07T03:02:30.718Z,5.32
2018-03-07T03:02:34.844Z,5.37
2018-03-07T03:02:38.974Z,5.3
2018-03-07T03:02:43.204Z,5.35
2018-03-07T03:02:47.218Z,5.32
2018-03-07T03:02:51.449Z,5.4
2018-03-07T03:02:55.532Z,5.35
2018-03-07T03:02:59.673Z,5.32
2018-03-07T03:03:03.909Z,5.4
2018-03-07T03:03:07.920Z,5.37
2018-03-07T03:03:12.037Z,5.32
2018-03-07T03:03:16.163Z,5.37
2018-03-07T03:03:20.538Z,5.32
2018-03-07T03:03:24.761Z,5.35
2018-03-07T03:03:28.899Z,5.41
2018-03-07T03:03:32.803Z,5.33
2018-03-07T03:03:36.813Z,5.38
2018-03-07T03:03:40.924Z,5.35
2018-03-07T03:03:45.051Z,5.33
2018-03-07T03:03:49.171Z,5.35
2018-03-07T03:03:53.406Z,5.32
2018-03-07T03:03:57.424Z,5.35
2018-03-07T03:04:01.757Z,5.37
2018-03-07T03:04:05.880Z,5.33
2018-03-07T03:04:10.103Z,5.38
2018-03-07T03:04:14.473Z,5.37
2018-03-07T03:04:18.705Z,5.37
2018-03-07T03:04:22.941Z,5.42
2018-03-07T03:04:26.844Z,5.42
2018-03-07T03:04:31.076Z,5.35
2018-03-07T03:04:35.308Z,5.44
2018-03-07T03:04:39.367Z,5.35
2018-03-07T03:04:43.707Z,5.37
2018-03-07T03:04:47.962Z,5.37
2018-03-07T03:04:52.302Z,5.35
2018-03-07T03:04:56.543Z,5.35
2018-03-07T03:05:00.895Z,5.4
2018-03-07T03:05:05.162Z,5.38
2018-03-07T03:05:09.176Z,5.37
2018-03-07T03:05:13.299Z,5.35
2018-03-07T03:05:17.646Z,5.37
2018-03-07T03:05:21.553Z,5.42
2018-03-07T03:05:25.889Z,5.41
2018-03-07T03:05:30.142Z,5.4
2018-03-07T03:05:34.157Z,5.35
2018-03-07T03:05:38.398Z,5.44
2018-03-07T03:05:42.619Z,5.41
2018-03-07T03:05:46.518Z,5.41
2018-03-07T03:05:50.871Z,5.41
2018-03-07T03:05:55.104Z,5.38
2018-03-07T03:05:59.444Z,5.38
2018-03-07T03:06:03.786Z,5.38
2018-03-07T03:06:07.913Z,5.38
2018-03-07T03:06:12.255Z,5.38
2018-03-07T03:06:16.484Z,5.35
2018-03-07T03:06:20.884Z,5.35
2018-03-07T03:06:25.114Z,5.33
2018-03-07T03:06:29.365Z,5.42
2018-03-07T03:06:33.382Z,5.37
2018-03-07T03:06:37.407Z,5.35
2018-03-07T03:06:41.642Z,5.37
2018-03-07T03:06:45.876Z,5.48
2018-03-07T03:06:50.133Z,5.38
2018-03-07T03:06:54.474Z,5.4
2018-03-07T03:06:58.595Z,5.4
2018-03-07T03:07:02.832Z,5.4
2018-03-07T03:07:07.184Z,5.44
2018-03-07T03:07:11.518Z,5.4
2018-03-07T03:07:15.651Z,5.45
2018-03-07T03:07:19.989Z,5.4
2018-03-07T03:07:24.224Z,5.4
2018-03-07T03:07:28.229Z,5.42
2018-03-07T03:07:32.341Z,5.42
2018-03-07T03:07:36.576Z,5.41
2018-03-07T03:07:40.701Z,5.42
2018-03-07T03:07:44.997Z,5.41
2018-03-07T03:07:49.132Z,5.38
2018-03-07T03:07:53.361Z,5.38
2018-03-07T03:07:57.367Z,5.42
2018-03-07T03:08:01.590Z,5.37
2018-03-07T03:08:06.133Z,5.4
2018-03-07T03:08:10.254Z,5.42
2018-03-07T03:08:14.375Z,5.45
2018-03-07T03:08:18.489Z,5.4
2018-03-07T03:08:22.394Z,5.44
2018-03-07T03:08:26.617Z,5.45
2018-03-07T03:08:30.836Z,5.41
2018-03-07T03:08:35.063Z,5.42
2018-03-07T03:08:39.280Z,5.41
2018-03-07T03:08:43.511Z,5.44
2018-03-07T03:08:47.739Z,5.45
2018-03-07T03:08:51.644Z,5.4
2018-03-07T03:08:55.872Z,5.4
2018-03-07T03:08:59.997Z,5.47
2018-03-07T03:09:04.236Z,5.45
2018-03-07T03:09:08.360Z,5.45
2018-03-07T03:09:12.369Z,5.48
2018-03-07T03:09:16.484Z,5.4
2018-03-07T03:09:20.387Z,5.44
2018-03-07T03:09:24.504Z,5.44
2018-03-07T03:09:28.406Z,5.48
2018-03-07T03:09:32.532Z,5.38
2018-03-07T03:09:36.327Z,5.45
2018-03-07T03:09:40.242Z,5.41
2018-03-07T03:09:44.362Z,5.48
2018-03-07T03:09:48.278Z,5.45
2018-03-07T03:09:52.503Z,5.45
2018-03-07T03:09:56.728Z,5.47
2018-03-07T03:10:00.957Z,5.48
2018-03-07T03:10:04.974Z,5.44
2018-03-07T03:10:09.092Z,5.44
2018-03-07T03:10:13.204Z,5.44
2018-03-07T03:10:17.217Z,5.52
2018-03-07T03:10:21.337Z,5.47
2018-03-07T03:10:25.242Z,5.52
2018-03-07T03:10:29.137Z,5.42
2018-03-07T03:10:33.252Z,5.51
2018-03-07T03:10:37.378Z,5.51
2018-03-07T03:10:41.493Z,5.48
2018-03-07T03:10:45.496Z,5.37
2018-03-07T03:10:49.504Z,5.48
2018-03-07T03:10:53.736Z,5.47
2018-03-07T03:10:57.846Z,5.42
2018-03-07T03:11:02.366Z,5.47
2018-03-07T03:11:06.271Z,5.49
2018-03-07T03:11:10.391Z,5.41
2018-03-07T03:11:14.401Z,5.49
2018-03-07T03:11:18.417Z,5.42
2018-03-07T03:11:22.527Z,5.52
2018-03-07T03:11:26.653Z,5.45
2018-03-07T03:11:30.906Z,5.51
2018-03-07T03:11:35.554Z,5.47
2018-03-07T03:11:39.668Z,5.41
2018-03-07T03:11:43.784Z,5.48
2018-03-07T03:11:48.012Z,5.47
2018-03-07T03:11:52.231Z,5.52
2018-03-07T03:11:56.562Z,5.48
2018-03-07T03:12:00.569Z,5.49
2018-03-07T03:12:04.961Z,5.55
2018-03-07T03:12:08.964Z,5.47
2018-03-07T03:12:12.967Z,5.47
2018-03-07T03:12:16.975Z,5.47
2018-03-07T03:12:21.199Z,5.49
2018-03-07T03:12:25.433Z,5.52
2018-03-07T03:12:29.653Z,5.52
2018-03-07T03:12:33.452Z,5.47
2018-03-07T03:12:37.567Z,5.55
2018-03-07T03:12:41.565Z,5.45
2018-03-07T03:12:45.790Z,5.47
2018-03-07T03:12:49.814Z,5.47
2018-03-07T03:12:54.130Z,5.47
2018-03-07T03:12:57.932Z,5.45
2018-03-07T03:13:02.507Z,5.45
2018-03-07T03:13:06.628Z,5.48
2018-03-07T03:13:10.855Z,5.49
2018-03-07T03:13:14.861Z,5.45
2018-03-07T03:13:18.877Z,5.55
2018-03-07T03:13:22.991Z,5.48
2018-03-07T03:13:26.999Z,5.55
2018-03-07T03:13:31.118Z,5.47
2018-03-07T03:13:35.016Z,5.52
2018-03-07T03:13:39.128Z,5.48
2018-03-07T03:13:43.348Z,5.44
2018-03-07T03:13:47.372Z,5.44
2018-03-07T03:13:51.385Z,5.44
2018-03-07T03:13:55.497Z,5.48
2018-03-07T03:13:59.731Z,5.47
2018-03-07T03:14:03.953Z,5.48
2018-03-07T03:14:08.066Z,5.51
2018-03-07T03:14:12.297Z,5.56
2018-03-07T03:14:16.408Z,5.48
2018-03-07T03:14:20.526Z,5.44
2018-03-07T03:14:24.540Z,5.48
2018-03-07T03:14:28.773Z,5.45
2018-03-07T03:14:32.671Z,5.47
2018-03-07T03:14:36.794Z,5.45
2018-03-07T03:14:40.923Z,5.48
2018-03-07T03:14:45.148Z,5.49
2018-03-07T03:14:49.057Z,5.48
2018-03-07T03:14:53.071Z,5.47
2018-03-07T03:14:57.296Z,5.48
2018-03-07T03:15:01.302Z,5.49
2018-03-07T03:15:05.470Z,5.49
2018-03-07T03:15:09.693Z,5.51
2018-03-07T03:15:13.702Z,5.44
2018-03-07T03:15:17.704Z,5.47
2018-03-07T03:15:21.821Z,5.49
2018-03-07T03:15:25.723Z,5.44
2018-03-07T03:15:29.842Z,5.48
2018-03-07T03:15:33.964Z,5.45
2018-03-07T03:15:38.083Z,5.48
2018-03-07T03:15:42.312Z,5.45
2018-03-07T03:15:46.431Z,5.44
2018-03-07T03:15:50.696Z,5.47
2018-03-07T03:15:55.063Z,5.45
2018-03-07T03:15:58.968Z,5.45
2018-03-07T03:16:02.982Z,5.45
2018-03-07T03:16:06.997Z,5.52
2018-03-07T03:16:11.226Z,5.51
2018-03-07T03:16:15.458Z,5.52
2018-03-07T03:16:19.688Z,5.47
2018-03-07T03:16:23.805Z,5.55
2018-03-07T03:16:27.924Z,5.49
2018-03-07T03:16:32.157Z,5.48
2018-03-07T03:16:36.164Z,5.52
2018-03-07T03:16:40.190Z,5.52
2018-03-07T03:16:44.310Z,5.49
2018-03-07T03:16:48.426Z,5.56
2018-03-07T03:16:52.545Z,5.51
2018-03-07T03:16:56.552Z,5.49
2018-03-07T03:17:00.779Z,5.6
2018-03-07T03:17:05.024Z,5.62
2018-03-07T03:17:09.033Z,5.55
2018-03-07T03:17:13.158Z,5.49
2018-03-07T03:17:17.389Z,5.59
2018-03-07T03:17:21.510Z,5.48
2018-03-07T03:17:25.840Z,5.52
2018-03-07T03:17:30.069Z,5.55
2018-03-07T03:17:34.293Z,5.48
2018-03-07T03:17:38.416Z,5.49
2018-03-07T03:17:42.636Z,5.59
2018-03-07T03:17:46.529Z,5.52
2018-03-07T03:17:50.427Z,5.55
2018-03-07T03:17:54.437Z,5.51
2018-03-07T03:17:58.555Z,5.47
2018-03-07T03:18:02.787Z,5.55
2018-03-07T03:18:06.796Z,5.56
2018-03-07T03:18:11.020Z,5.6
2018-03-07T03:18:15.132Z,5.63
2018-03-07T03:18:19.350Z,5.59
2018-03-07T03:18:23.367Z,5.59
2018-03-07T03:18:27.583Z,5.56
2018-03-07T03:18:31.486Z,5.6
2018-03-07T03:18:35.608Z,5.63
2018-03-07T03:18:39.721Z,5.56
2018-03-07T03:18:44.051Z,5.56
2018-03-07T03:18:48.167Z,5.49
2018-03-07T03:18:52.186Z,5.55
2018-03-07T03:18:56.431Z,5.51
2018-03-07T03:19:00.549Z,5.62
2018-03-07T03:19:04.660Z,5.59
2018-03-07T03:19:08.672Z,5.6
2018-03-07T03:19:12.779Z,5.59
2018-03-07T03:19:17.009Z,5.49
2018-03-07T03:19:21.137Z,5.62
2018-03-07T03:19:25.141Z,5.6
2018-03-07T03:19:29.369Z,5.62
2018-03-07T03:19:33.375Z,5.6
2018-03-07T03:19:37.491Z,5.51
2018-03-07T03:19:41.499Z,5.55
2018-03-07T03:19:45.402Z,5.59
2018-03-07T03:19:49.411Z,5.6
2018-03-07T03:19:53.839Z,5.63
2018-03-07T03:19:57.953Z,5.65
2018-03-07T03:20:02.071Z,5.65
2018-03-07T03:20:06.302Z,5.59
2018-03-07T03:20:10.522Z,5.62
2018-03-07T03:20:14.754Z,5.65
2018-03-07T03:20:18.973Z,5.59
2018-03-07T03:20:22.985Z,5.6
2018-03-07T03:20:27.097Z,5.59
2018-03-07T03:20:31.341Z,5.6
2018-03-07T03:20:35.459Z,5.56
2018-03-07T03:20:39.359Z,5.6
2018-03-07T03:20:43.375Z,5.62
2018-03-07T03:20:47.404Z,5.6
2018-03-07T03:20:51.404Z,5.6
2018-03-07T03:20:55.628Z,5.58
2018-03-07T03:20:59.681Z,5.59
2018-03-07T03:21:03.900Z,5.59
2018-03-07T03:21:08.016Z,5.6
2018-03-07T03:21:12.134Z,5.62
2018-03-07T03:21:16.241Z,5.62
2018-03-07T03:21:20.249Z,5.62
2018-03-07T03:21:24.358Z,5.63
2018-03-07T03:21:28.475Z,5.6
2018-03-07T03:21:32.698Z,5.56
2018-03-07T03:21:36.604Z,5.62
2018-03-07T03:21:40.715Z,5.62
2018-03-07T03:21:44.509Z,5.58
2018-03-07T03:21:48.414Z,5.6
2018-03-07T03:21:52.636Z,5.66
2018-03-07T03:21:56.849Z,5.58
2018-03-07T03:22:00.963Z,5.62
2018-03-07T03:22:04.867Z,5.66
2018-03-07T03:22:09.088Z,5.65
2018-03-07T03:22:13.210Z,5.65
2018-03-07T03:22:17.333Z,5.67
2018-03-07T03:22:21.660Z,5.63
2018-03-07T03:22:25.773Z,5.62
2018-03-07T03:22:29.780Z,5.66
2018-03-07T03:22:33.686Z,5.58
2018-03-07T03:22:37.796Z,5.7
2018-03-07T03:22:41.694Z,5.67
2018-03-07T03:22:45.701Z,5.67
2018-03-07T03:22:49.599Z,5.67
2018-03-07T03:22:53.603Z,5.66
2018-03-07T03:22:57.619Z,5.66
2018-03-07T03:23:01.941Z,5.6
2018-03-07T03:23:05.834Z,5.6
2018-03-07T03:23:10.173Z,5.62
2018-03-07T03:23:14.299Z,5.59
2018-03-07T03:23:18.524Z,5.69
2018-03-07T03:23:22.647Z,5.66
2018-03-07T03:23:26.656Z,5.7
2018-03-07T03:23:30.668Z,5.6
2018-03-07T03:23:34.802Z,5.65
2018-03-07T03:23:38.700Z,5.62
2018-03-07T03:23:42.818Z,5.67
2018-03-07T03:23:46.825Z,5.62
2018-03-07T03:23:50.937Z,5.69
2018-03-07T03:23:55.078Z,5.62
2018-03-07T03:23:59.202Z,5.67
2018-03-07T03:24:03.319Z,5.69
2018-03-07T03:24:07.431Z,5.63
2018-03-07T03:24:11.653Z,5.59
2018-03-07T03:24:15.764Z,5.69
2018-03-07T03:24:19.875Z,5.66
2018-03-07T03:24:23.997Z,5.67
2018-03-07T03:24:27.895Z,5.66
2018-03-07T03:24:32.014Z,5.66
2018-03-07T03:24:36.138Z,5.66
2018-03-07T03:24:40.362Z,5.69
2018-03-07T03:24:44.045Z,5.65
2018-03-07T03:24:48.370Z,5.7
2018-03-07T03:24:52.486Z,5.69
2018-03-07T03:24:56.616Z,5.63
2018-03-07T03:25:00.631Z,5.65
2018-03-07T03:25:04.755Z,5.65
2018-03-07T03:25:08.873Z,5.7
2018-03-07T03:25:13.105Z,5.65
2018-03-07T03:25:17.222Z,5.66
2018-03-07T03:25:21.440Z,5.65
2018-03-07T03:25:25.563Z,5.67
2018-03-07T03:25:29.583Z,5.66
2018-03-07T03:25:33.494Z,5.66
2018-03-07T03:25:37.718Z,5.66
2018-03-07T03:25:41.833Z,5.69
2018-03-07T03:25:45.953Z,5.66
2018-03-07T03:25:50.285Z,5.63
2018-03-07T03:25:54.192Z,5.75
2018-03-07T03:25:58.318Z,5.66
2018-03-07T03:26:02.736Z,5.67
2018-03-07T03:26:07.068Z,5.73
2018-03-07T03:26:11.183Z,5.62
2018-03-07T03:26:15.297Z,5.63
2018-03-07T03:26:19.315Z,5.74
2018-03-07T03:26:23.532Z,5.75
2018-03-07T03:26:27.752Z,5.69
2018-03-07T03:26:31.868Z,5.74
2018-03-07T03:26:35.874Z,5.73
2018-03-07T03:26:39.979Z,5.74
2018-03-07T03:26:43.884Z,5.67
2018-03-07T03:26:47.825Z,5.74
2018-03-07T03:26:51.960Z,5.75
2018-03-07T03:26:56.072Z,5.77
2018-03-07T03:27:00.293Z,5.77
2018-03-07T03:27:04.738Z,5.74
2018-03-07T03:27:09.018Z,5.7
2018-03-07T03:27:13.246Z,5.78
2018-03-07T03:27:17.471Z,5.75
2018-03-07T03:27:21.693Z,5.73
2018-03-07T03:27:25.593Z,5.75
2018-03-07T03:27:29.705Z,5.73
2018-03-07T03:27:33.944Z,5.7
2018-03-07T03:27:37.950Z,5.7
2018-03-07T03:27:42.163Z,5.69
2018-03-07T03:27:46.389Z,5.73
2018-03-07T03:27:50.611Z,5.75
2018-03-07T03:27:54.531Z,5.77
2018-03-07T03:27:58.536Z,5.74
2018-03-07T03:28:02.760Z,5.77
2018-03-07T03:28:06.779Z,5.8
2018-03-07T03:28:10.897Z,5.75
2018-03-07T03:28:15.118Z,5.73
2018-03-07T03:28:19.347Z,5.84
2018-03-07T03:28:23.358Z,5.73
2018-03-07T03:28:27.478Z,5.77
2018-03-07T03:28:31.704Z,5.73
2018-03-07T03:28:35.823Z,5.7
2018-03-07T03:28:39.828Z,5.77
2018-03-07T03:28:44.045Z,5.78
2018-03-07T03:28:48.168Z,5.75
2018-03-07T03:28:52.181Z,5.7
2018-03-07T03:28:56.316Z,5.75
2018-03-07T03:29:00.320Z,5.78
2018-03-07T03:29:04.432Z,5.73
2018-03-07T03:29:08.443Z,5.78
2018-03-07T03:29:12.667Z,5.73
2018-03-07T03:29:16.782Z,5.75
2018-03-07T03:29:20.799Z,5.75
2018-03-07T03:29:25.130Z,5.77
2018-03-07T03:29:29.153Z,5.8
2018-03-07T03:29:33.264Z,5.75
2018-03-07T03:29:37.168Z,5.7
2018-03-07T03:29:40.959Z,5.73
2018-03-07T03:29:44.865Z,5.77
2018-03-07T03:29:48.977Z,5.75
2018-03-07T03:29:52.880Z,5.8
2018-03-07T03:29:56.992Z,5.8
2018-03-07T03:30:01.008Z,5.77
2018-03-07T03:30:05.147Z,5.78
2018-03-07T03:30:09.404Z,5.83
2018-03-07T03:30:13.755Z,5.7
2018-03-07T03:30:17.942Z,5.74
2018-03-07T03:30:22.180Z,5.83
2018-03-07T03:30:26.414Z,5.8
2018-03-07T03:30:30.755Z,5.75
2018-03-07T03:30:35.111Z,5.74
2018-03-07T03:30:39.460Z,5.83
2018-03-07T03:30:43.703Z,5.75
2018-03-07T03:30:47.937Z,5.84
2018-03-07T03:30:52.075Z,5.74
2018-03-07T03:30:56.439Z,5.74
2018-03-07T03:31:00.566Z,5.77
2018-03-07T03:31:04.856Z,5.78
2018-03-07T03:31:08.990Z,5.8
2018-03-07T03:31:13.223Z,5.78
2018-03-07T03:31:17.287Z,5.74
2018-03-07T03:31:21.527Z,5.8
2018-03-07T03:31:25.653Z,5.74
2018-03-07T03:31:29.900Z,5.84
2018-03-07T03:31:34.147Z,5.75
2018-03-07T03:31:38.393Z,5.78
2018-03-07T03:31:42.413Z,5.78
2018-03-07T03:31:46.650Z,5.8
2018-03-07T03:31:50.448Z,5.78
2018-03-07T03:31:54.564Z,5.74
2018-03-07T03:31:58.683Z,5.75
2018-03-07T03:32:03.044Z,5.77
2018-03-07T03:32:07.161Z,5.74
2018-03-07T03:32:11.492Z,5.83
2018-03-07T03:32:15.720Z,5.75
2018-03-07T03:32:19.945Z,5.81
2018-03-07T03:32:24.172Z,5.74
2018-03-07T03:32:28.187Z,5.88
2018-03-07T03:32:32.410Z,5.78
2018-03-07T03:32:36.760Z,5.84
2018-03-07T03:32:40.991Z,5.81
2018-03-07T03:32:45.328Z,5.8
2018-03-07T03:32:49.550Z,5.77
2018-03-07T03:32:53.668Z,5.77
2018-03-07T03:32:57.889Z,5.87
2018-03-07T03:33:02.015Z,5.84
2018-03-07T03:33:06.253Z,5.77
2018-03-07T03:33:10.476Z,5.81
2018-03-07T03:33:14.497Z,5.7
2018-03-07T03:33:18.720Z,5.74
2018-03-07T03:33:22.948Z,5.78
2018-03-07T03:33:27.170Z,5.81
2018-03-07T03:33:31.511Z,5.73
2018-03-07T03:33:35.736Z,5.77
2018-03-07T03:33:39.956Z,5.78
2018-03-07T03:33:44.072Z,5.77
2018-03-07T03:33:48.301Z,5.81
2018-03-07T03:33:52.521Z,5.8
2018-03-07T03:33:56.740Z,5.77
2018-03-07T03:34:00.974Z,5.74
2018-03-07T03:34:05.109Z,5.78
2018-03-07T03:34:09.116Z,5.84
2018-03-07T03:34:13.128Z,5.9
2018-03-07T03:34:17.452Z,5.88
2018-03-07T03:34:21.675Z,5.85
2018-03-07T03:34:25.892Z,5.88
2018-03-07T03:34:29.798Z,5.83
2018-03-07T03:34:33.807Z,5.9
2018-03-07T03:34:37.923Z,5.87
2018-03-07T03:34:42.036Z,5.81
2018-03-07T03:34:46.156Z,5.87
2018-03-07T03:34:50.489Z,5.9
2018-03-07T03:34:54.503Z,5.84
2018-03-07T03:34:58.302Z,5.9
2018-03-07T03:35:02.356Z,5.83
2018-03-07T03:35:06.472Z,5.88
2018-03-07T03:35:10.482Z,5.84
2018-03-07T03:35:14.816Z,5.8
2018-03-07T03:35:18.714Z,5.83
2018-03-07T03:35:22.935Z,5.88
2018-03-07T03:35:27.165Z,5.84
2018-03-07T03:35:31.178Z,5.84
2018-03-07T03:35:35.308Z,5.92
2018-03-07T03:35:39.103Z,5.84
2018-03-07T03:35:43.427Z,5.84
2018-03-07T03:35:47.758Z,5.88
2018-03-07T03:35:51.985Z,5.9
2018-03-07T03:35:56.205Z,5.81
2018-03-07T03:36:00.430Z,5.87
2018-03-07T03:36:04.662Z,5.8
2018-03-07T03:36:08.671Z,5.88
2018-03-07T03:36:12.795Z,5.81
2018-03-07T03:36:16.909Z,5.87
2018-03-07T03:36:21.244Z,5.88
2018-03-07T03:36:25.461Z,5.9
2018-03-07T03:36:29.678Z,5.87
2018-03-07T03:36:33.802Z,5.88
2018-03-07T03:36:37.918Z,5.92
2018-03-07T03:36:41.937Z,5.87
2018-03-07T03:36:46.261Z,5.84
2018-03-07T03:36:50.486Z,5.84
2018-03-07T03:36:54.599Z,5.81
2018-03-07T03:36:58.826Z,5.93
2018-03-07T03:37:03.168Z,5.83
2018-03-07T03:37:07.189Z,5.88
2018-03-07T03:37:11.300Z,5.93
2018-03-07T03:37:15.416Z,5.93
2018-03-07T03:37:19.673Z,5.87
2018-03-07T03:37:23.684Z,5.84
2018-03-07T03:37:27.804Z,5.9
2018-03-07T03:37:31.919Z,5.84
2018-03-07T03:37:36.149Z,5.9
2018-03-07T03:37:40.371Z,5.92
2018-03-07T03:37:44.371Z,5.87
2018-03-07T03:37:48.382Z,5.87
2018-03-07T03:37:52.609Z,5.83
2018-03-07T03:37:56.838Z,5.95
2018-03-07T03:38:00.953Z,5.9
2018-03-07T03:38:05.524Z,5.88
2018-03-07T03:38:09.681Z,5.87
2018-03-07T03:38:13.899Z,5.9
2018-03-07T03:38:17.801Z,5.88
2018-03-07T03:38:21.808Z,5.83
2018-03-07T03:38:25.923Z,5.9
2018-03-07T03:38:30.041Z,5.81
2018-03-07T03:38:34.157Z,5.9
2018-03-07T03:38:38.379Z,5.93
2018-03-07T03:38:42.601Z,5.87
2018-03-07T03:38:46.832Z,5.87
2018-03-07T03:38:50.740Z,5.96
2018-03-07T03:38:54.964Z,5.88
2018-03-07T03:38:58.860Z,5.93
2018-03-07T03:39:03.133Z,5.95
2018-03-07T03:39:07.157Z,5.9
2018-03-07T03:39:11.395Z,5.81
2018-03-07T03:39:15.511Z,5.87
2018-03-07T03:39:19.737Z,5.84
2018-03-07T03:39:24.076Z,5.95
2018-03-07T03:39:27.972Z,5.83
2018-03-07T03:39:32.210Z,5.92
2018-03-07T03:39:36.323Z,5.81
2018-03-07T03:39:40.550Z,5.87
2018-03-07T03:39:44.769Z,5.81
2018-03-07T03:39:49.000Z,5.84
2018-03-07T03:39:53.108Z,5.87
2018-03-07T03:39:57.269Z,5.81
2018-03-07T03:40:01.442Z,5.8
2018-03-07T03:40:05.810Z,5.87
2018-03-07T03:40:09.915Z,5.83
2018-03-07T03:40:14.031Z,5.83
2018-03-07T03:40:18.255Z,5.92
2018-03-07T03:40:22.480Z,5.85
2018-03-07T03:40:26.381Z,5.9
2018-03-07T03:40:30.728Z,5.92
2018-03-07T03:40:34.856Z,5.9
2018-03-07T03:40:39.071Z,5.8
2018-03-07T03:40:43.081Z,5.83
2018-03-07T03:40:47.206Z,5.85
2018-03-07T03:40:51.438Z,5.98
2018-03-07T03:40:55.450Z,5.9
2018-03-07T03:40:59.563Z,5.85
2018-03-07T03:41:03.780Z,5.9
2018-03-07T03:41:07.791Z,5.92
2018-03-07T03:41:11.692Z,5.99
2018-03-07T03:41:15.914Z,5.95
2018-03-07T03:41:19.930Z,5.92
2018-03-07T03:41:24.158Z,5.93
2018-03-07T03:41:28.383Z,5.99
2018-03-07T03:41:32.393Z,5.9
2018-03-07T03:41:36.614Z,5.95
2018-03-07T03:41:40.406Z,5.9
2018-03-07T03:41:44.417Z,5.87
2018-03-07T03:41:48.644Z,5.96
2018-03-07T03:41:52.898Z,5.9
2018-03-07T03:41:57.009Z,5.99
2018-03-07T03:42:01.024Z,5.93
2018-03-07T03:42:04.933Z,5.95
2018-03-07T03:42:08.944Z,5.85
2018-03-07T03:42:13.178Z,5.88
2018-03-07T03:42:17.415Z,5.9
2018-03-07T03:42:21.537Z,5.85
2018-03-07T03:42:25.654Z,6.01
2018-03-07T03:42:29.770Z,5.96
2018-03-07T03:42:34.096Z,5.9
2018-03-07T03:42:38.317Z,5.96
2018-03-07T03:42:42.532Z,5.9
2018-03-07T03:42:46.655Z,5.93
2018-03-07T03:42:50.875Z,5.9
2018-03-07T03:42:54.893Z,5.96
2018-03-07T03:42:59.016Z,5.88
2018-03-07T03:43:03.235Z,5.9
2018-03-07T03:43:07.255Z,5.9
2018-03-07T03:43:11.369Z,5.98
2018-03-07T03:43:15.701Z,5.98
2018-03-07T03:43:19.931Z,5.88
2018-03-07T03:43:23.938Z,5.98
2018-03-07T03:43:28.089Z,5.98
2018-03-07T03:43:32.207Z,5.99
2018-03-07T03:43:36.102Z,6.01
2018-03-07T03:43:40.432Z,5.93
2018-03-07T03:43:44.432Z,5.99
2018-03-07T03:43:48.765Z,5.98
2018-03-07T03:43:52.879Z,5.98
2018-03-07T03:43:56.996Z,5.96
2018-03-07T03:44:01.004Z,5.98
2018-03-07T03:44:05.211Z,5.93
2018-03-07T03:44:09.435Z,6.01
2018-03-07T03:44:13.764Z,5.95
2018-03-07T03:44:17.780Z,5.9
2018-03-07T03:44:21.568Z,5.96
2018-03-07T03:44:25.574Z,5.96
2018-03-07T03:44:29.375Z,5.98
2018-03-07T03:44:33.491Z,6.02
2018-03-07T03:44:37.820Z,5.99
2018-03-07T03:44:41.839Z,5.98
2018-03-07T03:44:45.956Z,6.01
2018-03-07T03:44:50.173Z,5.92
2018-03-07T03:44:54.395Z,5.96
2018-03-07T03:44:58.408Z,5.99
2018-03-07T03:45:02.541Z,5.95
2018-03-07T03:45:06.660Z,5.99
2018-03-07T03:45:10.779Z,6.01
2018-03-07T03:45:15.005Z,5.92
2018-03-07T03:45:19.133Z,6.01
2018-03-07T03:45:23.032Z,5.98
2018-03-07T03:45:27.556Z,6.01
2018-03-07T03:45:31.682Z,6.01
2018-03-07T03:45:35.694Z,5.98
2018-03-07T03:45:39.808Z,6.03
2018-03-07T03:45:44.051Z,5.98
2018-03-07T03:45:48.121Z,6.02
2018-03-07T03:45:52.087Z,5.96
2018-03-07T03:45:55.870Z,6.03
2018-03-07T03:45:59.980Z,5.95
2018-03-07T03:46:04.190Z,5.98
2018-03-07T03:46:08.098Z,5.99
2018-03-07T03:46:12.325Z,6.03
2018-03-07T03:46:16.447Z,6.01
2018-03-07T03:46:20.464Z,5.99
2018-03-07T03:46:24.475Z,5.99
2018-03-07T03:46:28.373Z,5.95
2018-03-07T03:46:32.598Z,5.98
2018-03-07T03:46:36.864Z,5.99
2018-03-07T03:46:40.977Z,5.95
2018-03-07T03:46:45.305Z,6.01
2018-03-07T03:46:49.425Z,6.01
2018-03-07T03:46:53.446Z,5.96
2018-03-07T03:46:57.563Z,5.99
2018-03-07T03:47:01.831Z,5.96
2018-03-07T03:47:05.836Z,6.03
2018-03-07T03:47:09.953Z,5.95
2018-03-07T03:47:14.177Z,6.01
2018-03-07T03:47:18.085Z,5.96
2018-03-07T03:47:22.203Z,5.98
2018-03-07T03:47:26.427Z,5.99
2018-03-07T03:47:30.437Z,5.93
2018-03-07T03:47:34.660Z,5.99
2018-03-07T03:47:38.890Z,6.03
2018-03-07T03:47:43.013Z,6.01
2018-03-07T03:47:46.816Z,6.03
2018-03-07T03:47:50.928Z,6.01